createdAt,value
2023-02-25T00:00:49.984Z,623.33
2023-02-25T00:02:03.180Z,623.47
2023-02-25T00:02:50.107Z,623.49
2023-02-25T00:03:50.010Z,623.61
2023-02-25T00:04:49.929Z,623.43
2023-02-25T00:05:49.956Z,623.33
2023-02-25T00:06:49.927Z,623.29
2023-02-25T00:07:49.902Z,623.31
2023-02-25T00:08:49.893Z,623.36
2023-02-25T00:09:49.892Z,623.33
2023-02-25T00:10:49.874Z,623.37
2023-02-25T00:11:49.873Z,623.43
2023-02-25T00:12:49.891Z,623.35
2023-02-25T00:13:49.829Z,623.42
2023-02-25T00:14:49.846Z,623.43
2023-02-25T00:15:49.854Z,623.54
2023-02-25T00:16:49.875Z,623.69
2023-02-25T00:17:49.824Z,623.76
2023-02-25T00:18:49.775Z,623.90
2023-02-25T00:19:49.774Z,623.82
2023-02-25T00:20:49.770Z,623.97
2023-02-25T00:21:49.759Z,623.94
2023-02-25T00:22:49.763Z,623.88
2023-02-25T00:23:49.773Z,623.92
2023-02-25T00:24:49.717Z,624.10
2023-02-25T00:25:49.697Z,624.06
2023-02-25T00:26:49.710Z,624.07
2023-02-25T00:27:49.682Z,623.84
2023-02-25T00:28:49.716Z,623.85
2023-02-25T00:29:49.663Z,623.85
2023-02-25T00:30:49.726Z,623.95
2023-02-25T00:31:50.015Z,623.98
2023-02-25T00:32:49.703Z,623.96
2023-02-25T00:33:49.617Z,624.03
2023-02-25T00:34:49.621Z,623.93
2023-02-25T00:35:49.594Z,623.92
2023-02-25T00:36:49.658Z,624.05
2023-02-25T00:37:49.571Z,624.26
2023-02-25T00:38:49.601Z,624.06
2023-02-25T00:39:49.566Z,624.09
2023-02-25T00:40:49.544Z,624.07
2023-02-25T00:41:49.557Z,624.10
2023-02-25T00:42:49.544Z,624.01
2023-02-25T00:43:49.520Z,623.99
2023-02-25T00:44:49.507Z,624.41
2023-02-25T00:45:49.504Z,624.42
2023-02-25T00:46:56.505Z,624.43
2023-02-25T00:47:49.469Z,624.21
2023-02-25T00:48:49.463Z,624.05
2023-02-25T00:49:49.499Z,623.92
2023-02-25T00:50:49.432Z,624.08
2023-02-25T00:51:49.436Z,624.11
2023-02-25T00:52:49.414Z,624.05
2023-02-25T00:53:49.421Z,623.95
2023-02-25T00:54:50.055Z,623.89
2023-02-25T00:55:49.391Z,624.28
2023-02-25T00:56:49.389Z,624.22
2023-02-25T00:57:49.368Z,624.07
2023-02-25T00:58:49.345Z,623.94
2023-02-25T00:59:49.340Z,623.97
2023-02-25T01:00:52.119Z,624.17
2023-02-25T01:01:49.337Z,624.23
2023-02-25T01:02:49.338Z,624.38
2023-02-25T01:03:49.298Z,624.38
2023-02-25T01:04:49.282Z,624.75
2023-02-25T01:05:49.311Z,624.85
2023-02-25T01:06:49.270Z,624.31
2023-02-25T01:07:49.258Z,624.00
2023-02-25T01:08:49.235Z,624.21
2023-02-25T01:09:49.246Z,624.68
2023-02-25T01:10:49.245Z,624.77
2023-02-25T01:11:49.214Z,624.53
2023-02-25T01:12:49.214Z,624.06
2023-02-25T01:13:49.249Z,624.01
2023-02-25T01:14:49.177Z,624.10
2023-02-25T01:15:49.259Z,624.35
2023-02-25T01:16:49.151Z,624.58
2023-02-25T01:17:49.154Z,624.45
2023-02-25T01:18:49.140Z,624.46
2023-02-25T01:19:49.135Z,624.22
2023-02-25T01:20:49.108Z,624.25
2023-02-25T01:21:49.099Z,624.46
2023-02-25T01:22:49.104Z,624.77
2023-02-25T01:23:49.133Z,624.69
2023-02-25T01:24:49.069Z,624.92
2023-02-25T01:25:49.067Z,624.54
2023-02-25T01:26:49.081Z,624.67
2023-02-25T01:27:49.055Z,625.00
2023-02-25T01:28:49.017Z,624.84
2023-02-25T01:29:49.024Z,624.55
2023-02-25T01:30:49.058Z,624.66
2023-02-25T01:31:49.261Z,624.98
2023-02-25T01:32:49.045Z,625.07
2023-02-25T01:33:48.991Z,624.90
2023-02-25T01:34:48.965Z,624.66
2023-02-25T01:35:48.948Z,624.85
2023-02-25T01:36:48.960Z,624.64
2023-02-25T01:37:48.940Z,624.49
2023-02-25T01:38:48.936Z,624.17
2023-02-25T01:39:48.906Z,624.31
2023-02-25T01:40:48.908Z,624.49
2023-02-25T01:41:48.921Z,624.52
2023-02-25T01:42:48.894Z,624.49
2023-02-25T01:43:48.866Z,624.22
2023-02-25T01:44:48.850Z,623.99
2023-02-25T01:45:48.844Z,624.25
2023-02-25T01:46:48.876Z,624.50
2023-02-25T01:47:48.821Z,624.56
2023-02-25T01:48:48.813Z,624.77
2023-02-25T01:49:48.801Z,624.99
2023-02-25T01:50:48.789Z,624.66
2023-02-25T01:51:48.805Z,624.55
2023-02-25T01:52:48.773Z,625.33
2023-02-25T01:53:48.758Z,625.47
2023-02-25T01:54:48.743Z,624.80
2023-02-25T01:55:48.742Z,624.85
2023-02-25T01:56:48.741Z,624.56
2023-02-25T01:57:48.745Z,624.64
2023-02-25T01:58:48.742Z,624.47
2023-02-25T01:59:48.738Z,624.74
2023-02-25T02:00:48.712Z,625.14
2023-02-25T02:01:48.697Z,625.19
2023-02-25T02:02:48.725Z,624.98
2023-02-25T02:03:48.664Z,624.85
2023-02-25T02:04:48.640Z,624.80
2023-02-25T02:05:48.632Z,624.81
2023-02-25T02:06:48.646Z,625.39
2023-02-25T02:07:48.644Z,625.66
2023-02-25T02:08:48.595Z,625.23
2023-02-25T02:09:48.595Z,625.24
2023-02-25T02:10:48.586Z,625.72
2023-02-25T02:11:48.576Z,625.30
2023-02-25T02:12:48.560Z,625.06
2023-02-25T02:13:48.594Z,624.99
2023-02-25T02:14:48.571Z,625.10
2023-02-25T02:15:48.577Z,624.98
2023-02-25T02:16:48.525Z,624.94
2023-02-25T02:17:48.518Z,624.73
2023-02-25T02:18:48.486Z,624.50
2023-02-25T02:19:48.488Z,624.47
2023-02-25T02:20:48.487Z,624.52
2023-02-25T02:21:48.475Z,624.91
2023-02-25T02:22:48.485Z,625.48
2023-02-25T02:23:48.579Z,625.14
2023-02-25T02:24:48.430Z,624.71
2023-02-25T02:25:48.428Z,624.51
2023-02-25T02:26:48.412Z,624.63
2023-02-25T02:27:48.391Z,624.65
2023-02-25T02:28:48.387Z,625.33
2023-02-25T02:29:48.384Z,625.61
2023-02-25T02:30:48.455Z,625.73
2023-02-25T02:31:48.499Z,625.11
2023-02-25T02:32:48.413Z,625.13
2023-02-25T02:33:48.331Z,625.11
2023-02-25T02:34:48.350Z,624.87
2023-02-25T02:35:48.318Z,625.07
2023-02-25T02:36:48.303Z,625.01
2023-02-25T02:37:48.317Z,625.73
2023-02-25T02:38:48.272Z,625.45
2023-02-25T02:39:48.269Z,625.56
2023-02-25T02:40:48.258Z,625.36
2023-02-25T02:41:48.280Z,625.20
2023-02-25T02:42:48.247Z,625.34
2023-02-25T02:43:48.234Z,626.62
2023-02-25T02:44:48.216Z,625.73
2023-02-25T02:45:48.272Z,625.20
2023-02-25T02:46:48.214Z,625.50
2023-02-25T02:47:55.683Z,624.90
2023-02-25T02:48:48.169Z,624.79
2023-02-25T02:49:48.149Z,625.67
2023-02-25T02:50:48.142Z,626.21
2023-02-25T02:51:48.163Z,626.45
2023-02-25T02:52:48.121Z,625.81
2023-02-25T02:53:48.125Z,625.42
2023-02-25T02:54:48.095Z,625.75
2023-02-25T02:55:48.085Z,626.24
2023-02-25T02:56:48.093Z,627.00
2023-02-25T02:57:48.083Z,626.81
2023-02-25T02:58:48.053Z,626.50
2023-02-25T02:59:48.040Z,626.05
2023-02-25T03:00:48.119Z,625.65
2023-02-25T03:01:48.036Z,625.34
2023-02-25T03:02:48.040Z,625.71
2023-02-25T03:03:48.075Z,625.79
2023-02-25T03:04:48.002Z,625.76
2023-02-25T03:05:48.032Z,625.43
2023-02-25T03:06:47.989Z,625.34
2023-02-25T03:07:47.958Z,625.45
2023-02-25T03:08:47.950Z,625.78
2023-02-25T03:09:47.955Z,625.45
2023-02-25T03:10:47.921Z,626.13
2023-02-25T03:11:47.933Z,625.78
2023-02-25T03:12:47.944Z,625.76
2023-02-25T03:13:47.917Z,626.18
2023-02-25T03:14:47.886Z,626.47
2023-02-25T03:15:47.885Z,626.80
2023-02-25T03:16:47.896Z,626.38
2023-02-25T03:17:47.871Z,625.77
2023-02-25T03:18:47.852Z,625.46
2023-02-25T03:19:47.831Z,625.81
2023-02-25T03:20:47.825Z,625.81
2023-02-25T03:21:47.807Z,625.65
2023-02-25T03:22:47.810Z,625.81
2023-02-25T03:23:47.807Z,625.97
2023-02-25T03:24:47.803Z,627.18
2023-02-25T03:25:47.959Z,626.80
2023-02-25T03:26:47.764Z,625.85
2023-02-25T03:27:47.768Z,626.11
2023-02-25T03:28:47.749Z,625.54
2023-02-25T03:29:47.729Z,625.25
2023-02-25T03:30:47.805Z,624.83
2023-02-25T03:31:47.824Z,624.65
2023-02-25T03:32:47.780Z,624.33
2023-02-25T03:33:47.724Z,624.58
2023-02-25T03:34:47.690Z,625.34
2023-02-25T03:35:47.674Z,625.81
2023-02-25T03:36:47.659Z,625.52
2023-02-25T03:37:47.648Z,626.45
2023-02-25T03:38:47.624Z,625.96
2023-02-25T03:39:47.617Z,625.44
2023-02-25T03:40:47.605Z,624.88
2023-02-25T03:41:47.595Z,624.86
2023-02-25T03:42:47.594Z,625.10
2023-02-25T03:43:47.603Z,625.13
2023-02-25T03:44:47.561Z,625.01
2023-02-25T03:45:47.634Z,625.22
2023-02-25T03:46:47.565Z,625.59
2023-02-25T03:47:47.566Z,625.42
2023-02-25T03:48:47.536Z,625.36
2023-02-25T03:49:47.510Z,625.20
2023-02-25T03:50:47.517Z,625.17
2023-02-25T03:51:47.514Z,625.20
2023-02-25T03:52:47.521Z,625.37
2023-02-25T03:53:47.492Z,625.56
2023-02-25T03:54:47.455Z,625.77
2023-02-25T03:55:47.466Z,625.45
2023-02-25T03:56:47.432Z,625.17
2023-02-25T03:57:47.424Z,625.02
2023-02-25T03:58:47.413Z,625.13
2023-02-25T03:59:47.461Z,624.94
2023-02-25T04:00:47.414Z,624.61
2023-02-25T04:01:47.381Z,624.58
2023-02-25T04:02:47.480Z,624.72
2023-02-25T04:03:47.379Z,625.44
2023-02-25T04:04:47.410Z,626.16
2023-02-25T04:05:47.368Z,626.41
2023-02-25T04:06:47.368Z,625.55
2023-02-25T04:07:47.332Z,625.39
2023-02-25T04:08:47.298Z,625.36
2023-02-25T04:09:47.291Z,625.32
2023-02-25T04:10:47.293Z,626.83
2023-02-25T04:11:47.278Z,627.62
2023-02-25T04:12:47.270Z,626.27
2023-02-25T04:13:47.253Z,625.24
2023-02-25T04:14:47.249Z,625.01
2023-02-25T04:15:47.276Z,625.71
2023-02-25T04:16:47.214Z,625.50
2023-02-25T04:17:47.239Z,625.54
2023-02-25T04:18:47.205Z,625.15
2023-02-25T04:19:47.197Z,626.27
2023-02-25T04:20:47.183Z,626.88
2023-02-25T04:21:47.171Z,627.37
2023-02-25T04:22:47.169Z,625.79
2023-02-25T04:23:47.164Z,625.75
2023-02-25T04:24:47.136Z,626.13
2023-02-25T04:25:47.136Z,625.61
2023-02-25T04:26:47.123Z,625.53
2023-02-25T04:27:47.095Z,624.96
2023-02-25T04:28:47.080Z,624.60
2023-02-25T04:29:47.085Z,624.35
2023-02-25T04:30:47.195Z,624.42
2023-02-25T04:31:47.226Z,624.61
2023-02-25T04:32:47.145Z,625.01
2023-02-25T04:33:47.051Z,626.65
2023-02-25T04:34:47.047Z,627.28
2023-02-25T04:35:47.029Z,627.09
2023-02-25T04:36:47.010Z,627.44
2023-02-25T04:37:46.988Z,626.05
2023-02-25T04:38:47.008Z,625.81
2023-02-25T04:39:46.989Z,625.75
2023-02-25T04:40:46.975Z,626.07
2023-02-25T04:41:46.962Z,626.74
2023-02-25T04:42:46.950Z,627.85
2023-02-25T04:43:46.925Z,625.97
2023-02-25T04:44:46.922Z,625.59
2023-02-25T04:45:46.941Z,626.11
2023-02-25T04:46:46.950Z,626.64
2023-02-25T04:47:46.899Z,626.31
2023-02-25T04:48:54.384Z,625.52
2023-02-25T04:49:46.863Z,625.59
2023-02-25T04:50:46.847Z,626.23
2023-02-25T04:51:46.849Z,626.16
2023-02-25T04:52:46.829Z,626.21
2023-02-25T04:53:46.865Z,626.39
2023-02-25T04:54:46.827Z,626.16
2023-02-25T04:55:46.802Z,627.50
2023-02-25T04:56:46.805Z,630.53
2023-02-25T04:57:46.780Z,631.57
2023-02-25T04:58:46.766Z,626.84
2023-02-25T04:59:46.769Z,627.22
2023-02-25T05:00:46.748Z,626.71
2023-02-25T05:01:46.806Z,626.69
2023-02-25T05:02:46.742Z,626.61
2023-02-25T05:03:46.726Z,625.80
2023-02-25T05:04:46.804Z,625.79
2023-02-25T05:05:46.686Z,625.79
2023-02-25T05:06:46.707Z,626.30
2023-02-25T05:07:46.663Z,627.21
2023-02-25T05:08:46.740Z,627.15
2023-02-25T05:09:46.658Z,627.68
2023-02-25T05:10:46.659Z,626.66
2023-02-25T05:11:46.630Z,626.64
2023-02-25T05:12:46.619Z,628.08
2023-02-25T05:13:46.616Z,628.87
2023-02-25T05:14:46.624Z,626.98
2023-02-25T05:15:46.640Z,626.53
2023-02-25T05:16:46.594Z,626.70
2023-02-25T05:17:46.565Z,626.75
2023-02-25T05:18:46.552Z,627.44
2023-02-25T05:19:46.549Z,627.89
2023-02-25T05:20:46.527Z,627.62
2023-02-25T05:21:46.547Z,627.25
2023-02-25T05:22:46.508Z,626.61
2023-02-25T05:23:46.517Z,626.33
2023-02-25T05:24:46.508Z,625.79
2023-02-25T05:25:46.477Z,625.79
2023-02-25T05:26:46.503Z,625.79
2023-02-25T05:27:46.474Z,626.03
2023-02-25T05:28:46.463Z,625.79
2023-02-25T05:29:46.462Z,625.79
2023-02-25T05:30:46.441Z,625.30
2023-02-25T05:31:46.582Z,625.51
2023-02-25T05:32:46.604Z,625.32
2023-02-25T05:33:46.414Z,625.29
2023-02-25T05:34:46.395Z,625.78
2023-02-25T05:35:46.378Z,626.08
2023-02-25T05:36:46.374Z,626.12
2023-02-25T05:37:46.348Z,625.90
2023-02-25T05:38:46.349Z,625.61
2023-02-25T05:39:46.326Z,625.79
2023-02-25T05:40:46.316Z,625.79
2023-02-25T05:41:46.324Z,625.78
2023-02-25T05:42:46.336Z,625.79
2023-02-25T05:43:46.280Z,626.20
2023-02-25T05:44:46.293Z,626.27
2023-02-25T05:45:46.293Z,627.16
2023-02-25T05:46:46.323Z,630.20
2023-02-25T05:47:46.239Z,630.88
2023-02-25T05:48:46.258Z,628.77
2023-02-25T05:49:46.215Z,627.00
2023-02-25T05:50:46.208Z,626.31
2023-02-25T05:51:46.194Z,627.63
2023-02-25T05:52:46.186Z,630.36
2023-02-25T05:53:46.216Z,636.87
2023-02-25T05:54:46.190Z,635.49
2023-02-25T05:55:46.172Z,629.75
2023-02-25T05:56:46.161Z,627.21
2023-02-25T05:57:46.141Z,626.69
2023-02-25T05:58:46.139Z,627.65
2023-02-25T05:59:46.119Z,626.55
2023-02-25T06:00:46.111Z,626.59
2023-02-25T06:01:46.118Z,626.75
2023-02-25T06:02:46.108Z,626.48
2023-02-25T06:03:46.065Z,627.42
2023-02-25T06:04:46.066Z,626.99
2023-02-25T06:05:47.919Z,627.32
2023-02-25T06:06:46.072Z,627.00
2023-02-25T06:07:46.042Z,627.80
2023-02-25T06:08:46.048Z,627.82
2023-02-25T06:09:46.002Z,629.11
2023-02-25T06:10:45.993Z,628.13
2023-02-25T06:11:45.977Z,626.97
2023-02-25T06:12:46.613Z,626.61
2023-02-25T06:13:45.985Z,626.45
2023-02-25T06:14:45.992Z,626.78
2023-02-25T06:15:45.939Z,626.32
2023-02-25T06:16:46.004Z,626.09
2023-02-25T06:17:45.911Z,625.79
2023-02-25T06:18:45.936Z,625.09
2023-02-25T06:19:45.900Z,625.03
2023-02-25T06:20:45.879Z,625.05
2023-02-25T06:21:45.872Z,625.42
2023-02-25T06:22:45.905Z,625.37
2023-02-25T06:23:45.846Z,625.52
2023-02-25T06:24:45.839Z,625.54
2023-02-25T06:25:45.828Z,625.15
2023-02-25T06:26:45.830Z,625.18
2023-02-25T06:27:45.833Z,625.08
2023-02-25T06:28:45.798Z,625.08
2023-02-25T06:29:45.781Z,625.06
2023-02-25T06:30:45.878Z,624.79
2023-02-25T06:31:45.972Z,624.84
2023-02-25T06:32:45.842Z,624.95
2023-02-25T06:33:45.744Z,624.86
2023-02-25T06:34:45.734Z,624.97
2023-02-25T06:35:45.729Z,625.03
2023-02-25T06:36:45.721Z,625.42
2023-02-25T06:37:45.698Z,625.73
2023-02-25T06:38:45.695Z,625.40
2023-02-25T06:39:45.696Z,625.46
2023-02-25T06:40:45.672Z,625.64
2023-02-25T06:41:45.662Z,625.63
2023-02-25T06:42:45.650Z,624.82
2023-02-25T06:43:45.657Z,625.19
2023-02-25T06:44:45.657Z,625.72
2023-02-25T06:45:45.671Z,625.77
2023-02-25T06:46:45.621Z,625.79
2023-02-25T06:47:45.589Z,625.79
2023-02-25T06:48:45.591Z,625.46
2023-02-25T06:49:53.078Z,625.11
2023-02-25T06:50:45.568Z,625.04
2023-02-25T06:51:45.560Z,625.18
2023-02-25T06:52:45.541Z,625.43
2023-02-25T06:53:45.526Z,625.69
2023-02-25T06:54:45.527Z,625.79
2023-02-25T06:55:45.505Z,626.40
2023-02-25T06:56:45.504Z,626.70
2023-02-25T06:57:45.494Z,626.40
2023-02-25T06:58:45.482Z,626.16
2023-02-25T06:59:45.461Z,626.25
2023-02-25T07:00:45.479Z,625.65
2023-02-25T07:01:45.448Z,625.01
2023-02-25T07:02:45.464Z,624.95
2023-02-25T07:03:45.427Z,624.99
2023-02-25T07:04:45.511Z,625.08
2023-02-25T07:05:45.397Z,625.01
2023-02-25T07:06:45.384Z,624.87
2023-02-25T07:07:45.398Z,624.85
2023-02-25T07:08:45.379Z,624.85
2023-02-25T07:09:45.364Z,624.73
2023-02-25T07:10:45.346Z,624.54
2023-02-25T07:11:45.328Z,624.75
2023-02-25T07:12:45.320Z,625.24
2023-02-25T07:13:45.320Z,625.11
2023-02-25T07:14:45.328Z,624.68
2023-02-25T07:15:45.342Z,624.57
2023-02-25T07:16:45.295Z,624.75
2023-02-25T07:17:45.283Z,624.70
2023-02-25T07:18:45.298Z,624.56
2023-02-25T07:19:45.256Z,624.83
2023-02-25T07:20:45.252Z,624.81
2023-02-25T07:21:45.223Z,624.92
2023-02-25T07:22:45.239Z,624.73
2023-02-25T07:23:45.208Z,624.97
2023-02-25T07:24:45.228Z,624.75
2023-02-25T07:25:45.195Z,624.46
2023-02-25T07:26:45.205Z,624.62
2023-02-25T07:27:45.184Z,624.61
2023-02-25T07:28:45.152Z,624.66
2023-02-25T07:29:45.162Z,624.80
2023-02-25T07:30:45.252Z,625.31
2023-02-25T07:31:45.303Z,625.11
2023-02-25T07:32:45.298Z,624.77
2023-02-25T07:33:45.091Z,624.47
2023-02-25T07:34:45.102Z,624.42
2023-02-25T07:35:45.084Z,624.41
2023-02-25T07:36:45.063Z,624.61
2023-02-25T07:37:45.047Z,624.66
2023-02-25T07:38:45.058Z,624.49
2023-02-25T07:39:47.572Z,624.30
2023-02-25T07:40:45.020Z,624.22
2023-02-25T07:41:45.018Z,624.09
2023-02-25T07:42:45.007Z,624.19
2023-02-25T07:43:44.989Z,624.34
2023-02-25T07:44:45.001Z,624.48
2023-02-25T07:45:44.986Z,624.41
2023-02-25T07:46:44.971Z,624.31
2023-02-25T07:47:44.944Z,624.61
2023-02-25T07:48:44.936Z,624.37
2023-02-25T07:49:44.931Z,624.23
2023-02-25T07:50:44.949Z,624.19
2023-02-25T07:51:44.902Z,624.14
2023-02-25T07:52:44.929Z,624.07
2023-02-25T07:53:44.888Z,623.91
2023-02-25T07:54:44.887Z,623.93
2023-02-25T07:55:44.861Z,623.82
2023-02-25T07:56:45.608Z,623.66
2023-02-25T07:57:44.847Z,623.67
2023-02-25T07:58:44.826Z,623.73
2023-02-25T07:59:44.815Z,623.98
2023-02-25T08:00:44.820Z,623.95
2023-02-25T08:01:44.836Z,624.01
2023-02-25T08:02:44.846Z,624.10
2023-02-25T08:03:44.790Z,624.10
2023-02-25T08:04:44.814Z,624.19
2023-02-25T08:05:44.767Z,624.27
2023-02-25T08:06:44.772Z,624.22
2023-02-25T08:07:44.734Z,624.24
2023-02-25T08:08:44.732Z,624.11
2023-02-25T08:09:44.736Z,624.13
2023-02-25T08:10:44.716Z,624.29
2023-02-25T08:11:44.703Z,624.10
2023-02-25T08:12:44.692Z,624.29
2023-02-25T08:13:44.725Z,624.11
2023-02-25T08:14:44.688Z,624.00
2023-02-25T08:15:44.698Z,624.18
2023-02-25T08:16:44.657Z,624.10
2023-02-25T08:17:44.621Z,624.02
2023-02-25T08:18:44.633Z,623.98
2023-02-25T08:19:44.619Z,624.06
2023-02-25T08:20:44.589Z,623.90
2023-02-25T08:21:44.581Z,623.80
2023-02-25T08:22:44.591Z,623.86
2023-02-25T08:23:44.579Z,623.82
2023-02-25T08:24:44.549Z,623.69
2023-02-25T08:25:44.555Z,623.83
2023-02-25T08:26:44.542Z,624.27
2023-02-25T08:27:44.512Z,624.32
2023-02-25T08:28:44.505Z,624.26
2023-02-25T08:29:44.491Z,624.41
2023-02-25T08:30:44.518Z,624.37
2023-02-25T08:31:44.662Z,624.17
2023-02-25T08:32:44.557Z,624.13
2023-02-25T08:33:44.481Z,624.22
2023-02-25T08:34:44.451Z,624.65
2023-02-25T08:35:44.453Z,624.71
2023-02-25T08:36:44.432Z,624.37
2023-02-25T08:37:44.417Z,624.25
2023-02-25T08:38:44.432Z,624.58
2023-02-25T08:39:44.408Z,624.60
2023-02-25T08:40:44.377Z,624.39
2023-02-25T08:41:44.383Z,624.28
2023-02-25T08:42:44.354Z,624.23
2023-02-25T08:43:44.345Z,624.12
2023-02-25T08:44:44.372Z,624.21
2023-02-25T08:45:44.340Z,624.26
2023-02-25T08:46:44.410Z,624.28
2023-02-25T08:47:44.306Z,624.07
2023-02-25T08:48:44.300Z,623.89
2023-02-25T08:49:44.311Z,624.11
2023-02-25T08:50:51.781Z,624.11
2023-02-25T08:51:44.252Z,624.06
2023-02-25T08:52:44.249Z,623.93
2023-02-25T08:53:44.250Z,623.79
2023-02-25T08:54:44.244Z,624.05
2023-02-25T08:55:44.225Z,624.32
2023-02-25T08:56:44.296Z,624.23
2023-02-25T08:57:44.186Z,624.12
2023-02-25T08:58:44.201Z,624.02
2023-02-25T08:59:44.187Z,624.42
2023-02-25T09:00:44.244Z,624.63
2023-02-25T09:01:44.146Z,624.83
2023-02-25T09:02:44.164Z,625.44
2023-02-25T09:03:44.146Z,625.69
2023-02-25T09:04:44.179Z,626.25
2023-02-25T09:05:44.113Z,626.59
2023-02-25T09:06:44.108Z,625.43
2023-02-25T09:07:44.074Z,625.32
2023-02-25T09:08:44.077Z,625.43
2023-02-25T09:09:44.072Z,625.08
2023-02-25T09:10:50.283Z,625.09
2023-02-25T09:11:45.062Z,625.01
2023-02-25T09:12:44.024Z,624.79
2023-02-25T09:13:44.037Z,624.41
2023-02-25T09:14:44.012Z,624.37
2023-02-25T09:15:43.991Z,624.40
2023-02-25T09:16:44.044Z,624.41
2023-02-25T09:17:43.982Z,624.98
2023-02-25T09:18:43.956Z,625.44
2023-02-25T09:19:43.952Z,626.11
2023-02-25T09:20:43.936Z,625.81
2023-02-25T09:21:43.932Z,625.03
2023-02-25T09:22:43.922Z,624.89
2023-02-25T09:23:43.913Z,625.47
2023-02-25T09:24:43.894Z,625.60
2023-02-25T09:25:44.022Z,624.83
2023-02-25T09:26:43.907Z,624.77
2023-02-25T09:27:43.862Z,624.95
2023-02-25T09:28:43.862Z,624.69
2023-02-25T09:29:43.866Z,624.59
2023-02-25T09:30:43.899Z,624.96
2023-02-25T09:31:43.997Z,625.67
2023-02-25T09:32:43.901Z,626.26
2023-02-25T09:33:43.798Z,626.18
2023-02-25T09:34:43.790Z,626.13
2023-02-25T09:35:43.820Z,625.73
2023-02-25T09:36:43.760Z,625.63
2023-02-25T09:37:43.761Z,625.40
2023-02-25T09:38:43.759Z,625.05
2023-02-25T09:39:43.734Z,625.29
2023-02-25T09:40:43.717Z,626.27
2023-02-25T09:41:43.723Z,627.21
2023-02-25T09:42:43.797Z,629.70
2023-02-25T09:43:43.706Z,682.50
2023-02-25T09:44:43.701Z,694.42
2023-02-25T09:45:43.747Z,635.64
2023-02-25T09:46:43.671Z,629.89
2023-02-25T09:47:43.715Z,629.35
2023-02-25T09:48:46.162Z,629.35
2023-02-25T09:49:43.641Z,684.65
2023-02-25T09:50:43.606Z,751.06
2023-02-25T09:51:43.645Z,684.41
2023-02-25T09:52:43.612Z,721.70
2023-02-25T09:53:43.581Z,710.69
2023-02-25T09:54:43.562Z,677.02
2023-02-25T09:55:43.571Z,674.89
2023-02-25T09:56:43.592Z,653.39
2023-02-25T09:57:43.542Z,697.95
2023-02-25T09:58:43.553Z,675.51
2023-02-25T09:59:43.522Z,696.39
2023-02-25T10:00:43.530Z,670.32
2023-02-25T10:01:43.496Z,634.32
2023-02-25T10:02:43.569Z,632.09
2023-02-25T10:03:43.480Z,632.43
2023-02-25T10:04:43.469Z,630.19
2023-02-25T10:05:43.451Z,633.55
2023-02-25T10:06:44.453Z,634.20
2023-02-25T10:07:43.449Z,633.59
2023-02-25T10:08:43.426Z,641.77
2023-02-25T10:09:43.418Z,716.00
2023-02-25T10:10:43.416Z,729.67
2023-02-25T10:11:43.419Z,758.23
2023-02-25T10:12:43.373Z,713.36
2023-02-25T10:13:43.366Z,698.78
2023-02-25T10:14:43.394Z,702.25
2023-02-25T10:15:52.023Z,649.37
2023-02-25T10:16:43.362Z,632.99
2023-02-25T10:17:43.389Z,635.17
2023-02-25T10:18:43.340Z,639.64
2023-02-25T10:19:43.300Z,648.71
2023-02-25T10:20:43.307Z,645.75
2023-02-25T10:21:43.290Z,637.62
2023-02-25T10:22:43.264Z,634.02
2023-02-25T10:23:43.261Z,638.28
2023-02-25T10:24:43.256Z,644.76
2023-02-25T10:25:43.235Z,650.47
2023-02-25T10:26:43.224Z,651.31
2023-02-25T10:27:43.218Z,645.12
2023-02-25T10:28:43.211Z,646.04
2023-02-25T10:29:43.215Z,643.84
2023-02-25T10:30:43.275Z,645.06
2023-02-25T10:31:43.447Z,644.22
2023-02-25T10:32:43.238Z,650.37
2023-02-25T10:33:43.149Z,651.41
2023-02-25T10:34:43.134Z,651.63
2023-02-25T10:35:43.150Z,646.63
2023-02-25T10:36:43.123Z,646.70
2023-02-25T10:37:43.115Z,648.22
2023-02-25T10:38:43.113Z,655.22
2023-02-25T10:39:43.106Z,649.20
2023-02-25T10:40:43.097Z,654.45
2023-02-25T10:41:43.058Z,645.52
2023-02-25T10:42:43.043Z,646.57
2023-02-25T10:43:43.060Z,645.93
2023-02-25T10:44:43.036Z,650.49
2023-02-25T10:45:43.035Z,648.48
2023-02-25T10:46:43.030Z,652.38
2023-02-25T10:47:42.993Z,650.05
2023-02-25T10:48:42.983Z,648.06
2023-02-25T10:49:43.005Z,647.87
2023-02-25T10:50:46.333Z,644.85
2023-02-25T10:51:50.473Z,646.52
2023-02-25T10:52:42.933Z,647.89
2023-02-25T10:53:42.940Z,649.82
2023-02-25T10:54:43.024Z,650.81
2023-02-25T10:55:42.909Z,655.83
2023-02-25T10:56:42.896Z,664.00
2023-02-25T10:57:42.884Z,672.41
2023-02-25T10:58:42.873Z,678.97
2023-02-25T10:59:42.905Z,694.60
2023-02-25T11:00:42.846Z,661.30
2023-02-25T11:01:42.942Z,661.48
2023-02-25T11:02:42.961Z,667.98
2023-02-25T11:03:42.823Z,673.50
2023-02-25T11:04:42.848Z,664.46
2023-02-25T11:05:42.806Z,655.89
2023-02-25T11:06:42.802Z,659.17
2023-02-25T11:07:42.793Z,652.08
2023-02-25T11:08:42.774Z,653.43
2023-02-25T11:09:42.766Z,656.97
2023-02-25T11:10:42.765Z,665.19
2023-02-25T11:11:42.731Z,654.70
2023-02-25T11:12:42.728Z,660.38
2023-02-25T11:13:42.742Z,663.62
2023-02-25T11:14:42.695Z,657.16
2023-02-25T11:15:45.685Z,659.61
2023-02-25T11:16:42.762Z,661.23
2023-02-25T11:17:42.666Z,663.76
2023-02-25T11:18:42.670Z,659.55
2023-02-25T11:19:42.656Z,661.94
2023-02-25T11:20:42.646Z,664.41
2023-02-25T11:21:42.672Z,670.75
2023-02-25T11:22:42.610Z,665.44
2023-02-25T11:23:42.603Z,680.91
2023-02-25T11:24:42.612Z,677.30
2023-02-25T11:25:42.595Z,675.22
2023-02-25T11:26:42.592Z,673.78
2023-02-25T11:27:42.595Z,681.26
2023-02-25T11:28:42.579Z,689.19
2023-02-25T11:29:42.546Z,686.88
2023-02-25T11:30:42.641Z,692.27
2023-02-25T11:31:42.829Z,695.77
2023-02-25T11:32:42.675Z,690.67
2023-02-25T11:33:42.553Z,685.71
2023-02-25T11:34:42.526Z,700.79
2023-02-25T11:35:42.490Z,700.42
2023-02-25T11:36:42.467Z,708.25
2023-02-25T11:37:44.714Z,701.61
2023-02-25T11:38:42.453Z,705.41
2023-02-25T11:39:42.444Z,732.41
2023-02-25T11:40:42.415Z,720.79
2023-02-25T11:41:42.414Z,723.37
2023-02-25T11:42:42.422Z,751.13
2023-02-25T11:43:42.441Z,784.62
2023-02-25T11:44:42.370Z,798.08
2023-02-25T11:45:42.373Z,764.79
2023-02-25T11:46:42.413Z,775.92
2023-02-25T11:47:42.343Z,759.44
2023-02-25T11:48:42.333Z,739.39
2023-02-25T11:49:42.809Z,727.72
2023-02-25T11:50:42.322Z,754.32
2023-02-25T11:51:42.327Z,736.81
2023-02-25T11:52:42.284Z,734.88
2023-02-25T11:53:42.364Z,742.05
2023-02-25T11:54:42.272Z,748.71
2023-02-25T11:55:42.260Z,758.88
2023-02-25T11:56:42.252Z,747.43
2023-02-25T11:57:42.231Z,751.17
2023-02-25T11:58:42.221Z,749.17
2023-02-25T11:59:42.220Z,758.64
2023-02-25T12:00:42.203Z,749.35
2023-02-25T12:01:42.181Z,763.70
2023-02-25T12:02:42.193Z,773.04
2023-02-25T12:03:42.173Z,770.10
2023-02-25T12:04:42.154Z,771.23
2023-02-25T12:05:42.190Z,773.85
2023-02-25T12:06:42.149Z,744.47
2023-02-25T12:07:47.805Z,752.80
2023-02-25T12:08:43.120Z,764.72
2023-02-25T12:09:42.100Z,761.81
2023-02-25T12:10:42.110Z,748.81
2023-02-25T12:11:42.097Z,746.16
2023-02-25T12:12:42.059Z,767.39
2023-02-25T12:13:42.106Z,745.73
2023-02-25T12:14:42.040Z,757.94
2023-02-25T12:15:42.076Z,754.32
2023-02-25T12:16:43.451Z,749.33
2023-02-25T12:17:42.008Z,773.75
2023-02-25T12:18:42.008Z,787.41
2023-02-25T12:19:42.008Z,765.41
2023-02-25T12:20:41.984Z,765.76
2023-02-25T12:21:41.995Z,790.68
2023-02-25T12:22:41.977Z,777.94
2023-02-25T12:23:42.737Z,769.62
2023-02-25T12:24:41.957Z,751.55
2023-02-25T12:25:41.923Z,757.73
2023-02-25T12:26:41.922Z,762.85
2023-02-25T12:27:41.902Z,747.94
2023-02-25T12:28:41.905Z,735.57